Chula Vista, California
Current Conditions -  °F | °C
As of 12:56 AM on Wednesday 26 Nov 2014 (Local Time) from KNRS Reporting Station
Clear Clear  
Wind Chill: 55°   Ceiling: Unl
Heat Index: 55°   Visibility: 10mi
Dew Point: 28°   Wind: 6mph
Humidity: 35%   Direction: 50°NE
Pressure: 30.25"   Gusts: NA
Location:  32.64°N, 117.08°W
Report Text: KNRS 260856Z AUTO 05005KT 10SM CLR 13/M02 A3025 RMK AO2 SLP242 T01281022 58010 $
Loading
Personal Weather Stations






























Interactive Weather Map New forecast layout! Learn more

10-Day Weather Forecast

Advertisements
Track Severe Weather on mobile